Foveran, United Kingdom
Current Conditions -  °F | °C
As of 12:50 PM on Tuesday 21 Oct 2014 (Local Time) from EGPD Reporting Station
Scattered Clouds Scattered Clouds  
Wind Chill: 40°   Ceiling: Unl
Heat Index: 48°   Visibility: 6mi
Dew Point: 39°   Wind: 29mph
Humidity: 71%   Direction: 310°NW
Pressure: 29.23"   Gusts: 40mph
Location:  57.31°N, 2.04°W
Report Text: EGPD 211150Z 31025G35KT 9999 FEW028 SCT032 09/04 Q0990 NOSIG
Loading
Personal Weather Stations






























Interactive Weather Map New forecast layout! Learn more

10-Day Weather Forecast

Advertisements
Track Severe Weather on mobile